Time;durP1;ratioP1;P1;durP2;ratioP2;P2;SDS_P1;SDS_P2;PMS_P1;PMS_P2;Temp;Humidity;BMP_temperature;BMP_pressure;BME280_temperature;BME280_humidity;BME280_pressure;Samples;Min_cycle;Max_cycle;Signal;HPM_P1;HPM_P2
2024/01/01 00:00:46;;;;;;;10.05;4.70;;;;;;;;;;5058932;28;20225;-88
2024/01/01 00:03:17;;;;;;;11.20;4.63;;;;;;;;;;5058136;28;20049;-87
2024/01/01 00:05:44;;;;;;;12.40;7.10;;;;;;;;;;5046677;28;20093;-88
2024/01/01 00:08:11;;;;;;;8.80;6.18;;;;;;;;;;5022233;28;20060;-87
2024/01/01 00:10:39;;;;;;;13.57;7.50;;;;;;;;;;5040760;28;20062;-88
2024/01/01 00:13:06;;;;;;;11.38;4.95;;;;;;;;;;5058264;28;20486;-86
2024/01/01 00:15:33;;;;;;;10.52;5.40;;;;;;;;;;5045054;28;20046;-88
2024/01/01 00:18:01;;;;;;;12.63;4.82;;;;;;;;;;5052786;28;20064;-87
2024/01/01 00:20:28;;;;;;;9.30;5.47;;;;;;;;;;5044273;28;20106;-87
2024/01/01 00:22:55;;;;;;;7.80;4.60;;;;;;;;;;5058068;28;20053;-87
2024/01/01 00:25:22;;;;;;;7.72;4.53;;;;;;;;;;5058798;28;20053;-87
2024/01/01 00:27:50;;;;;;;12.32;6.63;;;;;;;;;;5045006;28;20083;-86
2024/01/01 00:30:17;;;;;;;11.90;5.15;;;;;;;;;;5045287;28;20536;-87
2024/01/01 00:32:44;;;;;;;16.23;6.55;;;;;;;;;;5033459;28;20493;-87
2024/01/01 00:35:12;;;;;;;10.15;5.90;;;;;;;;;;5057806;28;20060;-88
2024/01/01 00:37:39;;;;;;;9.65;5.78;;;;;;;;;;5060980;28;20072;-87
2024/01/01 00:40:07;;;;;;;8.88;5.60;;;;;;;;;;5044458;28;20486;-87
2024/01/01 00:42:34;;;;;;;12.50;5.95;;;;;;;;;;5024029;28;20049;-87
2024/01/01 00:45:02;;;;;;;12.80;6.13;;;;;;;;;;5035367;28;20061;-88
2024/01/01 00:47:29;;;;;;;13.30;7.10;;;;;;;;;;5041036;28;20087;-88
2024/01/01 00:49:58;;;;;;;11.35;6.75;;;;;;;;;;5042245;28;20052;-87
2024/01/01 00:52:25;;;;;;;17.20;9.45;;;;;;;;;;5058400;28;20088;-88
2024/01/01 00:54:52;;;;;;;16.13;8.48;;;;;;;;;;5034948;28;20077;-87
2024/01/01 00:57:20;;;;;;;15.35;7.72;;;;;;;;;;5038732;28;20409;-87
2024/01/01 00:59:47;;;;;;;13.68;7.38;;;;;;;;;;5057275;28;20053;-87
2024/01/01 01:02:15;;;;;;;12.73;7.50;;;;;;;;;;5057297;28;20045;-89
2024/01/01 01:04:45;;;;;;;12.15;7.28;;;;;;;;;;5061655;28;20128;-87
2024/01/01 01:07:31;;;;;;;11.50;6.72;;;;;;;;;;5042502;28;20045;-89
2024/01/01 01:09:58;;;;;;;11.77;7.45;;;;;;;;;;5057468;28;20084;-88
2024/01/01 01:12:26;;;;;;;15.63;7.10;;;;;;;;;;5058209;28;20107;-87
2024/01/01 01:14:54;;;;;;;12.05;6.50;;;;;;;;;;5044032;28;20052;-88
2024/01/01 01:17:21;;;;;;;12.35;7.43;;;;;;;;;;5044738;28;20202;-88
2024/01/01 01:19:48;;;;;;;8.73;6.13;;;;;;;;;;5041016;28;20587;-88
2024/01/01 01:22:15;;;;;;;12.23;6.78;;;;;;;;;;5055921;28;20106;-88
2024/01/01 01:24:43;;;;;;;10.57;6.18;;;;;;;;;;5028360;28;20091;-90
2024/01/01 01:27:10;;;;;;;14.23;6.57;;;;;;;;;;5043746;28;20151;-88
2024/01/01 01:29:37;;;;;;;11.02;6.57;;;;;;;;;;5042307;28;20053;-88
2024/01/01 01:32:05;;;;;;;10.63;6.38;;;;;;;;;;5044218;28;20046;-88
2024/01/01 01:34:32;;;;;;;12.10;6.00;;;;;;;;;;5066193;28;20053;-88
2024/01/01 01:36:59;;;;;;;8.18;5.30;;;;;;;;;;5044121;28;20128;-88
2024/01/01 01:39:26;;;;;;;7.88;4.78;;;;;;;;;;5042555;28;20548;-87
2024/01/01 01:41:54;;;;;;;7.35;4.43;;;;;;;;;;5038220;28;20409;-87
2024/01/01 01:44:21;;;;;;;10.90;5.40;;;;;;;;;;5043416;28;20490;-88
2024/01/01 01:46:48;;;;;;;11.02;5.32;;;;;;;;;;5040316;28;20100;-88
2024/01/01 01:49:15;;;;;;;7.85;4.50;;;;;;;;;;5057004;28;20042;-89
2024/01/01 01:51:47;;;;;;;7.82;4.18;;;;;;;;;;5048476;28;20449;-87
2024/01/01 01:54:15;;;;;;;6.57;4.63;;;;;;;;;;5056650;28;20490;-88
2024/01/01 01:56:43;;;;;;;8.32;4.22;;;;;;;;;;5044414;28;20045;-87
2024/01/01 01:59:10;;;;;;;6.32;4.45;;;;;;;;;;5043715;28;20540;-87
2024/01/01 02:01:38;;;;;;;9.55;5.30;;;;;;;;;;5041069;28;20087;-87
2024/01/01 02:04:05;;;;;;;9.18;5.10;;;;;;;;;;5041012;28;20049;-88
2024/01/01 02:06:33;;;;;;;13.73;7.68;;;;;;;;;;5058503;28;20046;-87
2024/01/01 02:09:00;;;;;;;9.63;6.18;;;;;;;;;;5032338;28;20092;-88
2024/01/01 02:11:27;;;;;;;13.95;7.60;;;;;;;;;;5022515;28;20465;-88
2024/01/01 02:14:06;;;;;;;12.57;8.02;;;;;;;;;;5056688;28;20053;-90
2024/01/01 02:16:34;;;;;;;14.88;8.93;;;;;;;;;;5058335;28;20107;-88
2024/01/01 02:19:01;;;;;;;15.85;8.55;;;;;;;;;;5042976;28;20057;-88
2024/01/01 02:21:30;;;;;;;13.65;8.30;;;;;;;;;;5042193;28;20060;-88
2024/01/01 02:23:57;;;;;;;14.73;8.98;;;;;;;;;;5056386;28;20467;-88
2024/01/01 02:26:24;;;;;;;17.30;9.73;;;;;;;;;;5057503;28;20045;-88
2024/01/01 02:28:52;;;;;;;20.15;9.88;;;;;;;;;;5043174;28;20045;-88
2024/01/01 02:31:19;;;;;;;16.85;9.98;;;;;;;;;;5043160;28;20421;-87
2024/01/01 02:33:46;;;;;;;16.23;9.73;;;;;;;;;;5036860;28;20447;-88
2024/01/01 02:36:14;;;;;;;19.05;10.82;;;;;;;;;;5039724;28;20050;-86
2024/01/01 02:38:41;;;;;;;20.67;11.02;;;;;;;;;;5044180;28;20062;-88
2024/01/01 02:41:08;;;;;;;20.85;11.68;;;;;;;;;;5060207;28;20127;-87
2024/01/01 02:43:36;;;;;;;22.67;10.73;;;;;;;;;;5047030;28;20045;-88
2024/01/01 02:46:03;;;;;;;21.80;11.38;;;;;;;;;;5046800;28;20057;-87
2024/01/01 02:48:30;;;;;;;19.25;12.23;;;;;;;;;;5045970;28;20524;-87
2024/01/01 02:50:57;;;;;;;23.67;12.25;;;;;;;;;;5060049;28;20080;-87
2024/01/01 02:53:25;;;;;;;23.27;12.57;;;;;;;;;;5044938;28;20462;-87
2024/01/01 02:55:52;;;;;;;26.50;14.10;;;;;;;;;;5047549;28;20171;-87
2024/01/01 02:58:19;;;;;;;24.33;12.60;;;;;;;;;;5029944;28;20057;-87
2024/01/01 03:00:48;;;;;;;25.38;12.77;;;;;;;;;;5046172;28;20056;-87
2024/01/01 03:03:16;;;;;;;28.30;12.85;;;;;;;;;;5046311;28;20106;-87
2024/01/01 03:05:43;;;;;;;21.65;11.93;;;;;;;;;;5035961;28;20056;-87
2024/01/01 03:08:12;;;;;;;17.83;11.60;;;;;;;;;;5052376;28;20107;-88
2024/01/01 03:10:39;;;;;;;21.58;12.82;;;;;;;;;;5034528;28;20470;-87
2024/01/01 03:13:07;;;;;;;23.40;11.93;;;;;;;;;;5058970;28;20413;-86
2024/01/01 03:15:34;;;;;;;18.35;12.52;;;;;;;;;;5050792;28;20124;-87
2024/01/01 03:18:02;;;;;;;19.02;10.18;;;;;;;;;;5059244;28;20065;-87
2024/01/01 03:20:31;;;;;;;20.45;11.98;;;;;;;;;;5058854;28;20136;-87
2024/01/01 03:22:58;;;;;;;17.50;10.32;;;;;;;;;;5059201;28;20057;-87
2024/01/01 03:25:26;;;;;;;20.08;10.77;;;;;;;;;;5059865;28;20053;-86
2024/01/01 03:27:55;;;;;;;21.05;11.75;;;;;;;;;;5047003;28;20114;-88
2024/01/01 03:30:24;;;;;;;19.50;10.10;;;;;;;;;;5046260;28;20045;-87
2024/01/01 03:32:51;;;;;;;20.48;11.23;;;;;;;;;;5043632;28;20084;-87
2024/01/01 03:35:19;;;;;;;18.95;11.00;;;;;;;;;;5058541;28;20045;-86
2024/01/01 03:37:46;;;;;;;19.27;11.27;;;;;;;;;;5045517;28;20057;-87
2024/01/01 03:40:14;;;;;;;18.67;10.90;;;;;;;;;;5045611;28;20049;-87
2024/01/01 03:42:41;;;;;;;16.10;10.23;;;;;;;;;;5042254;28;20080;-87
2024/01/01 03:45:09;;;;;;;23.63;11.45;;;;;;;;;;5042269;28;20053;-87
2024/01/01 03:47:36;;;;;;;19.80;10.77;;;;;;;;;;5045539;28;20053;-87
2024/01/01 03:50:06;;;;;;;22.58;12.02;;;;;;;;;;5045919;28;20102;-87
2024/01/01 03:52:33;;;;;;;19.00;10.82;;;;;;;;;;5030000;28;20053;-87
2024/01/01 03:55:01;;;;;;;18.88;11.70;;;;;;;;;;5044809;28;20111;-87
2024/01/01 03:57:29;;;;;;;18.65;10.73;;;;;;;;;;5043928;28;20053;-87
2024/01/01 03:59:56;;;;;;;24.50;12.10;;;;;;;;;;5041926;28;20077;-87
2024/01/01 04:02:23;;;;;;;20.15;11.85;;;;;;;;;;5059319;28;20053;-87
2024/01/01 04:04:51;;;;;;;22.92;11.77;;;;;;;;;;5046340;28;20045;-87
2024/01/01 04:07:18;;;;;;;19.95;10.75;;;;;;;;;;5045058;28;20081;-86
2024/01/01 04:09:46;;;;;;;18.88;10.45;;;;;;;;;;5044968;28;20080;-86
2024/01/01 04:12:13;;;;;;;19.25;10.30;;;;;;;;;;5044824;28;20053;-87
2024/01/01 04:14:40;;;;;;;18.05;9.38;;;;;;;;;;5036816;28;20430;-88
2024/01/01 04:17:08;;;;;;;15.50;8.63;;;;;;;;;;5044930;28;20049;-87
2024/01/01 04:19:35;;;;;;;20.02;9.63;;;;;;;;;;5042138;28;20063;-88
2024/01/01 04:22:02;;;;;;;17.50;8.93;;;;;;;;;;5058078;28;20054;-87
2024/01/01 04:24:30;;;;;;;14.05;8.88;;;;;;;;;;5059358;28;20057;-87
2024/01/01 04:26:57;;;;;;;17.83;9.40;;;;;;;;;;5045001;28;20123;-87
2024/01/01 04:29:24;;;;;;;14.85;8.95;;;;;;;;;;5044782;28;20468;-87
2024/01/01 04:31:51;;;;;;;23.88;9.27;;;;;;;;;;5038734;28;20045;-87
2024/01/01 04:34:19;;;;;;;13.80;8.88;;;;;;;;;;5044318;28;20064;-88
2024/01/01 04:36:46;;;;;;;16.10;9.43;;;;;;;;;;5057536;28;20132;-88
2024/01/01 04:39:13;;;;;;;25.33;10.10;;;;;;;;;;5057775;28;20092;-88
2024/01/01 04:41:41;;;;;;;18.35;9.77;;;;;;;;;;5060606;28;20053;-87
2024/01/01 04:44:08;;;;;;;20.02;9.43;;;;;;;;;;5044349;28;20051;-88
2024/01/01 04:46:35;;;;;;;17.95;8.95;;;;;;;;;;5043108;28;20049;-87
2024/01/01 04:49:03;;;;;;;16.08;9.27;;;;;;;;;;5057769;28;20053;-87
2024/01/01 04:51:30;;;;;;;20.27;9.57;;;;;;;;;;5059326;28;20050;-87
2024/01/01 04:53:57;;;;;;;17.75;9.07;;;;;;;;;;5045532;28;20083;-87
2024/01/01 04:56:25;;;;;;;19.73;9.75;;;;;;;;;;5043641;28;20041;-88
2024/01/01 04:58:57;;;;;;;18.05;8.25;;;;;;;;;;5030324;28;20052;-87
2024/01/01 05:01:26;;;;;;;13.13;7.85;;;;;;;;;;5043261;28;20080;-87
2024/01/01 05:03:53;;;;;;;11.38;8.38;;;;;;;;;;5057174;28;20073;-88
2024/01/01 05:06:20;;;;;;;15.77;9.30;;;;;;;;;;5057604;28;20052;-87
2024/01/01 05:08:48;;;;;;;13.45;8.45;;;;;;;;;;5044254;28;20468;-88
2024/01/01 05:11:15;;;;;;;12.68;7.75;;;;;;;;;;5044462;28;20103;-88
2024/01/01 05:13:42;;;;;;;12.27;8.02;;;;;;;;;;5041841;28;20049;-88
2024/01/01 05:16:10;;;;;;;13.20;7.72;;;;;;;;;;5057362;28;20060;-87
2024/01/01 05:18:37;;;;;;;10.32;6.43;;;;;;;;;;5061396;28;20057;-87
2024/01/01 05:21:05;;;;;;;8.57;5.85;;;;;;;;;;5044017;28;20055;-87
2024/01/01 05:23:33;;;;;;;11.30;6.03;;;;;;;;;;5027198;28;20045;-88
2024/01/01 05:26:00;;;;;;;10.23;6.07;;;;;;;;;;5044202;28;20489;-88
2024/01/01 05:28:27;;;;;;;13.80;7.20;;;;;;;;;;5042442;28;20128;-88
2024/01/01 05:30:56;;;;;;;12.50;6.68;;;;;;;;;;5057173;28;20115;-88
2024/01/01 05:33:23;;;;;;;10.43;6.78;;;;;;;;;;5042010;28;20252;-88
2024/01/01 05:35:50;;;;;;;12.20;6.88;;;;;;;;;;5044931;28;20052;-89
2024/01/01 05:38:19;;;;;;;11.43;6.80;;;;;;;;;;5044953;28;20053;-88
2024/01/01 05:40:46;;;;;;;11.40;6.35;;;;;;;;;;5048859;28;20057;-88
2024/01/01 05:43:14;;;;;;;14.40;7.07;;;;;;;;;;5040897;28;20045;-88
2024/01/01 05:45:41;;;;;;;12.20;7.38;;;;;;;;;;5059923;28;20463;-88
2024/01/01 05:48:08;;;;;;;14.90;7.93;;;;;;;;;;5037069;28;20045;-87
2024/01/01 05:50:52;;;;;;;19.05;8.57;;;;;;;;;;5040943;28;20053;-87
2024/01/01 05:53:19;;;;;;;18.52;9.35;;;;;;;;;;5056703;28;20100;-88
2024/01/01 05:55:47;;;;;;;16.17;8.65;;;;;;;;;;5043425;28;20076;-87
2024/01/01 05:58:14;;;;;;;14.68;8.23;;;;;;;;;;5029501;28;20100;-88
2024/01/01 06:00:41;;;;;;;15.35;8.00;;;;;;;;;;5042822;28;20134;-88
2024/01/01 06:03:09;;;;;;;14.90;8.02;;;;;;;;;;5043249;28;20095;-87
2024/01/01 06:05:36;;;;;;;16.25;8.70;;;;;;;;;;5041379;28;20049;-87
2024/01/01 06:08:04;;;;;;;13.23;7.70;;;;;;;;;;5056699;28;20486;-87
2024/01/01 06:10:32;;;;;;;14.95;8.02;;;;;;;;;;5060261;28;20314;-87
2024/01/01 06:12:59;;;;;;;17.15;8.63;;;;;;;;;;5044207;28;20088;-86
2024/01/01 06:15:27;;;;;;;17.77;7.22;;;;;;;;;;5044679;28;20057;-86
2024/01/01 06:17:54;;;;;;;14.20;7.80;;;;;;;;;;5048123;28;20080;-87
2024/01/01 06:20:22;;;;;;;16.15;7.50;;;;;;;;;;5046991;28;20154;-86
2024/01/01 06:22:49;;;;;;;13.98;7.85;;;;;;;;;;5060141;28;20050;-89
2024/01/01 06:25:17;;;;;;;15.32;7.78;;;;;;;;;;5044931;28;20057;-88
2024/01/01 06:27:45;;;;;;;18.05;8.48;;;;;;;;;;5052350;28;20076;-88
2024/01/01 06:30:12;;;;;;;16.65;8.50;;;;;;;;;;5060473;28;20058;-89
2024/01/01 06:32:40;;;;;;;16.70;7.97;;;;;;;;;;5071890;28;20049;-87
2024/01/01 06:35:08;;;;;;;14.45;8.38;;;;;;;;;;5046945;28;20141;-88
2024/01/01 06:37:35;;;;;;;13.00;8.15;;;;;;;;;;5047031;28;20084;-87
2024/01/01 06:40:03;;;;;;;15.70;8.45;;;;;;;;;;5045582;28;20049;-88
2024/01/01 06:42:30;;;;;;;27.88;11.23;;;;;;;;;;5045032;28;20063;-87
2024/01/01 06:45:00;;;;;;;13.07;8.32;;;;;;;;;;5059896;28;20045;-88
2024/01/01 06:47:28;;;;;;;13.20;8.15;;;;;;;;;;5061418;28;20513;-89
2024/01/01 06:49:55;;;;;;;16.75;8.93;;;;;;;;;;5047141;28;20532;-88
2024/01/01 06:52:22;;;;;;;15.32;9.00;;;;;;;;;;5038516;28;20065;-89
2024/01/01 06:54:49;;;;;;;33.63;18.70;;;;;;;;;;5046212;28;20045;-87
2024/01/01 06:57:17;;;;;;;17.08;9.60;;;;;;;;;;5047045;28;20057;-88
2024/01/01 06:59:44;;;;;;;13.45;7.75;;;;;;;;;;5043323;28;20080;-87
2024/01/01 07:02:12;;;;;;;14.20;7.65;;;;;;;;;;5043049;28;20555;-87
2024/01/01 07:04:39;;;;;;;14.75;6.88;;;;;;;;;;5046078;28;20049;-89
2024/01/01 07:07:06;;;;;;;15.43;8.07;;;;;;;;;;5039953;28;20060;-88
2024/01/01 07:09:34;;;;;;;15.57;7.22;;;;;;;;;;5042756;28;20045;-87
2024/01/01 07:12:16;;;;;;;14.93;7.10;;;;;;;;;;5043037;28;20049;-87
2024/01/01 07:14:43;;;;;;;11.68;7.10;;;;;;;;;;5046409;28;20053;-87
2024/01/01 07:17:10;;;;;;;13.50;7.03;;;;;;;;;;5047573;28;20060;-88
2024/01/01 07:19:38;;;;;;;12.65;7.25;;;;;;;;;;5042617;28;20064;-91
2024/01/01 07:22:06;;;;;;;14.40;6.32;;;;;;;;;;5058481;28;20501;-89
2024/01/01 07:24:33;;;;;;;14.45;7.65;;;;;;;;;;5044607;28;20100;-86
2024/01/01 07:27:00;;;;;;;13.73;7.20;;;;;;;;;;5046535;28;20347;-87
2024/01/01 07:29:31;;;;;;;12.68;6.50;;;;;;;;;;5045249;28;20406;-88
2024/01/01 07:31:58;;;;;;;10.80;6.57;;;;;;;;;;5053900;28;20053;-87
2024/01/01 07:34:26;;;;;;;11.32;6.38;;;;;;;;;;5039511;28;20048;-88
2024/01/01 07:36:54;;;;;;;14.02;6.10;;;;;;;;;;5058988;28;20045;-88
2024/01/01 07:39:23;;;;;;;17.58;6.97;;;;;;;;;;5059717;28;20465;-87
2024/01/01 07:41:51;;;;;;;11.27;6.45;;;;;;;;;;5041630;28;20075;-87
2024/01/01 07:44:18;;;;;;;16.50;5.88;;;;;;;;;;5050751;28;20430;-86
2024/01/01 07:46:47;;;;;;;11.75;5.60;;;;;;;;;;5047208;28;20879;-87
2024/01/01 07:49:16;;;;;;;10.85;5.30;;;;;;;;;;5059991;28;20042;-87
2024/01/01 07:51:43;;;;;;;16.67;6.28;;;;;;;;;;5035401;28;20522;-87
2024/01/01 07:54:11;;;;;;;8.60;4.75;;;;;;;;;;5058656;28;20049;-87
2024/01/01 07:56:43;;;;;;;9.52;4.22;;;;;;;;;;5061536;28;20698;-87
2024/01/01 07:59:13;;;;;;;11.80;4.40;;;;;;;;;;5038519;28;20544;-87
2024/01/01 08:01:41;;;;;;;7.22;3.80;;;;;;;;;;5045452;28;20052;-87
2024/01/01 08:04:08;;;;;;;6.97;3.42;;;;;;;;;;5045667;28;20049;-87
2024/01/01 08:06:36;;;;;;;7.80;3.55;;;;;;;;;;5043323;28;20049;-86
2024/01/01 08:09:03;;;;;;;6.95;3.85;;;;;;;;;;5042264;28;20123;-87
2024/01/01 08:11:30;;;;;;;9.77;3.58;;;;;;;;;;5043448;28;20057;-87
2024/01/01 08:13:58;;;;;;;6.97;3.08;;;;;;;;;;5045302;28;20064;-85
2024/01/01 08:16:25;;;;;;;7.80;3.67;;;;;;;;;;5044229;28;20504;-86
2024/01/01 08:18:56;;;;;;;6.68;3.20;;;;;;;;;;5057526;28;20136;-87
2024/01/01 08:21:24;;;;;;;6.70;3.20;;;;;;;;;;5058750;28;20077;-86
2024/01/01 08:23:51;;;;;;;5.93;3.10;;;;;;;;;;5044840;28;20052;-86
2024/01/01 08:26:21;;;;;;;5.45;2.70;;;;;;;;;;5044056;28;20130;-88
2024/01/01 08:28:51;;;;;;;6.53;3.13;;;;;;;;;;5030033;28;20119;-87
2024/01/01 08:31:20;;;;;;;4.80;3.28;;;;;;;;;;5027837;28;20054;-87
2024/01/01 08:33:47;;;;;;;9.02;3.72;;;;;;;;;;5057879;28;20123;-87
2024/01/01 08:36:15;;;;;;;7.10;3.63;;;;;;;;;;5058081;28;20053;-88
2024/01/01 08:38:43;;;;;;;10.15;2.95;;;;;;;;;;5061095;28;20045;-87
2024/01/01 08:41:10;;;;;;;8.77;3.45;;;;;;;;;;5044178;28;20064;-86
2024/01/01 08:43:37;;;;;;;7.30;2.92;;;;;;;;;;5042697;28;20465;-85
2024/01/01 08:46:05;;;;;;;6.70;2.70;;;;;;;;;;5057722;28;20071;-87
2024/01/01 08:48:33;;;;;;;4.85;2.58;;;;;;;;;;5059843;28;20064;-87
2024/01/01 08:51:00;;;;;;;8.85;2.95;;;;;;;;;;5045055;28;20045;-88
2024/01/01 08:53:27;;;;;;;4.97;3.22;;;;;;;;;;5043009;28;20052;-87
2024/01/01 08:55:59;;;;;;;6.88;2.55;;;;;;;;;;5056939;28;20057;-87
2024/01/01 08:58:26;;;;;;;7.88;2.80;;;;;;;;;;5057321;28;20075;-86
2024/01/01 09:00:53;;;;;;;7.60;3.08;;;;;;;;;;5058229;28;20049;-88
2024/01/01 09:03:21;;;;;;;6.78;2.90;;;;;;;;;;5045047;28;20053;-88
2024/01/01 09:05:48;;;;;;;16.88;8.98;;;;;;;;;;5045351;28;20131;-87
2024/01/01 09:08:16;;;;;;;4.93;2.63;;;;;;;;;;5045308;28;20056;-87
2024/01/01 09:10:43;;;;;;;3.83;2.38;;;;;;;;;;5041025;28;20549;-87
2024/01/01 09:13:11;;;;;;;4.78;1.92;;;;;;;;;;5040605;28;20045;-87
2024/01/01 09:15:38;;;;;;;5.35;1.73;;;;;;;;;;5057350;28;20512;-87
2024/01/01 09:18:07;;;;;;;7.22;1.98;;;;;;;;;;5040806;28;20053;-88
2024/01/01 09:20:38;;;;;;;6.15;2.22;;;;;;;;;;5038235;28;20049;-87
2024/01/01 09:23:06;;;;;;;4.35;1.88;;;;;;;;;;5033932;28;20049;-88
2024/01/01 09:25:40;;;;;;;9.77;2.80;;;;;;;;;;5042041;28;20084;-87
2024/01/01 09:28:08;;;;;;;7.00;1.48;;;;;;;;;;5057351;28;20443;-87
2024/01/01 09:30:35;;;;;;;7.07;2.35;;;;;;;;;;5059388;28;20049;-87
2024/01/01 09:33:03;;;;;;;6.72;1.70;;;;;;;;;;5043660;28;20053;-87
2024/01/01 09:35:31;;;;;;;6.43;1.60;;;;;;;;;;5042283;28;20053;-87
2024/01/01 09:38:02;;;;;;;6.45;1.50;;;;;;;;;;5057295;28;20045;-88
2024/01/01 09:40:30;;;;;;;2.92;1.20;;;;;;;;;;5057954;28;20060;-87
2024/01/01 09:42:58;;;;;;;4.85;1.30;;;;;;;;;;5044365;28;20077;-88
2024/01/01 09:45:26;;;;;;;3.67;1.85;;;;;;;;;;5042302;28;20044;-88
2024/01/01 09:47:53;;;;;;;5.93;1.75;;;;;;;;;;5053527;28;20057;-87
2024/01/01 09:50:21;;;;;;;3.25;1.40;;;;;;;;;;5043286;28;20049;-88
2024/01/01 09:52:58;;;;;;;4.18;1.23;;;;;;;;;;5057131;28;20111;-87
2024/01/01 09:55:25;;;;;;;3.90;1.40;;;;;;;;;;5064559;28;20099;-88
2024/01/01 09:57:52;;;;;;;4.93;1.40;;;;;;;;;;5029276;28;20056;-88
2024/01/01 10:00:23;;;;;;;5.30;2.20;;;;;;;;;;5043269;28;20102;-88
2024/01/01 10:02:51;;;;;;;5.15;1.55;;;;;;;;;;5056563;28;20418;-88
2024/01/01 10:05:18;;;;;;;4.10;1.52;;;;;;;;;;5056352;28;20099;-87
2024/01/01 10:07:47;;;;;;;7.75;1.67;;;;;;;;;;5060092;28;20049;-88
2024/01/01 10:10:27;;;;;;;9.13;2.03;;;;;;;;;;5043659;28;20049;-87
2024/01/01 10:13:06;;;;;;;5.40;1.70;;;;;;;;;;5030213;28;20127;-89
2024/01/01 10:15:34;;;;;;;3.50;1.42;;;;;;;;;;5042715;28;20053;-88
2024/01/01 10:18:08;;;;;;;4.30;1.77;;;;;;;;;;5064473;28;20045;-88
2024/01/01 10:20:36;;;;;;;4.82;1.88;;;;;;;;;;5043236;28;20099;-87
2024/01/01 10:23:25;;;;;;;3.80;1.55;;;;;;;;;;5043023;28;20091;-88
2024/01/01 10:26:03;;;;;;;6.20;2.10;;;;;;;;;;5032876;28;20057;-87
2024/01/01 10:28:32;;;;;;;6.28;1.55;;;;;;;;;;5058277;28;20399;-88
2024/01/01 10:31:00;;;;;;;2.45;1.40;;;;;;;;;;5050646;28;20479;-87
2024/01/01 10:33:32;;;;;;;4.30;1.80;;;;;;;;;;5054602;28;20057;-87
2024/01/01 10:36:01;;;;;;;5.15;1.73;;;;;;;;;;5056629;28;20050;-90
2024/01/01 10:38:29;;;;;;;3.50;1.75;;;;;;;;;;5048286;28;20053;-87
2024/01/01 10:40:57;;;;;;;3.83;1.15;;;;;;;;;;5056537;28;20482;-87
2024/01/01 10:43:30;;;;;;;4.15;0.98;;;;;;;;;;5039971;28;20061;-89
2024/01/01 10:46:01;;;;;;;6.32;1.92;;;;;;;;;;5037602;28;20085;-89
2024/01/01 10:48:28;;;;;;;4.15;1.30;;;;;;;;;;5040990;28;20127;-88
2024/01/01 10:51:16;;;;;;;4.07;1.40;;;;;;;;;;5043484;28;20507;-87
2024/01/01 10:54:03;;;;;;;3.40;1.00;;;;;;;;;;5043029;28;20049;-87
2024/01/01 10:56:50;;;;;;;3.50;1.10;;;;;;;;;;5044629;28;20057;-88
2024/01/01 10:59:21;;;;;;;2.30;1.00;;;;;;;;;;5059928;28;20045;-89
2024/01/01 11:01:52;;;;;;;2.28;1.13;;;;;;;;;;5035842;28;20041;-88
2024/01/01 11:04:20;;;;;;;5.13;1.15;;;;;;;;;;5051126;28;20104;-87
2024/01/01 11:06:48;;;;;;;2.83;1.13;;;;;;;;;;5044169;28;20053;-93
2024/01/01 11:09:21;;;;;;;3.63;0.90;;;;;;;;;;5059983;28;20087;-87
2024/01/01 11:11:50;;;;;;;6.03;1.30;;;;;;;;;;5035584;28;20099;-87
2024/01/01 11:14:24;;;;;;;3.35;1.20;;;;;;;;;;5027789;28;20050;-88
2024/01/01 11:16:53;;;;;;;6.03;1.30;;;;;;;;;;5024912;28;20052;-87
2024/01/01 11:19:35;;;;;;;6.18;1.38;;;;;;;;;;5044790;28;20092;-87
2024/01/01 11:22:28;;;;;;;8.68;1.98;;;;;;;;;;5059380;28;20076;-88
2024/01/01 11:24:55;;;;;;;7.15;1.52;;;;;;;;;;5037326;28;20049;-87
2024/01/01 11:27:27;;;;;;;7.28;1.48;;;;;;;;;;5059453;28;20073;-87
2024/01/01 11:30:02;;;;;;;5.47;1.23;;;;;;;;;;5046835;28;20052;-87
2024/01/01 11:32:30;;;;;;;11.63;1.48;;;;;;;;;;5044531;28;20151;-88
2024/01/01 11:35:05;;;;;;;7.00;1.20;;;;;;;;;;5043372;28;20520;-86
2024/01/01 11:37:32;;;;;;;5.40;1.10;;;;;;;;;;5045602;28;20056;-88
2024/01/01 11:40:00;;;;;;;8.00;1.27;;;;;;;;;;5046045;28;20057;-88
2024/01/01 11:42:28;;;;;;;7.65;1.80;;;;;;;;;;5037546;28;20506;-88
2024/01/01 11:45:11;;;;;;;2.78;1.40;;;;;;;;;;5047247;28;20049;-88
2024/01/01 11:47:39;;;;;;;7.65;1.40;;;;;;;;;;5052636;28;20106;-86
2024/01/01 11:50:07;;;;;;;3.78;1.40;;;;;;;;;;5042511;28;20132;-88
2024/01/01 11:52:35;;;;;;;7.75;1.30;;;;;;;;;;5044155;28;20502;-89
2024/01/01 11:55:03;;;;;;;2.50;1.20;;;;;;;;;;5045809;28;20118;-87
2024/01/01 11:57:30;;;;;;;5.35;1.17;;;;;;;;;;5044401;28;20425;-88
2024/01/01 11:59:58;;;;;;;3.58;1.10;;;;;;;;;;5058866;28;20053;-88
2024/01/01 12:02:25;;;;;;;6.38;1.20;;;;;;;;;;5059333;28;20423;-88
2024/01/01 12:04:55;;;;;;;3.88;0.93;;;;;;;;;;5045540;28;20072;-88
2024/01/01 12:07:35;;;;;;;4.22;1.38;;;;;;;;;;5043446;28;20056;-88
2024/01/01 12:10:10;;;;;;;3.50;0.90;;;;;;;;;;5034323;28;20067;-88
2024/01/01 12:12:39;;;;;;;4.70;1.20;;;;;;;;;;5043093;28;20049;-88
2024/01/01 12:15:10;;;;;;;5.03;1.33;;;;;;;;;;5058839;28;20049;-88
2024/01/01 12:17:38;;;;;;;4.35;1.23;;;;;;;;;;5060724;28;20079;-88
2024/01/01 12:20:06;;;;;;;6.35;1.33;;;;;;;;;;5045122;28;20051;-87
2024/01/01 12:22:34;;;;;;;5.78;1.10;;;;;;;;;;5044252;28;20048;-87
2024/01/01 12:25:01;;;;;;;6.55;1.40;;;;;;;;;;5058367;28;20050;-88
2024/01/01 12:27:28;;;;;;;5.28;0.90;;;;;;;;;;5058541;28;20053;-87
2024/01/01 12:29:58;;;;;;;6.32;1.20;;;;;;;;;;5041970;28;20049;-88
2024/01/01 12:32:25;;;;;;;5.53;0.98;;;;;;;;;;5042292;28;20409;-87
2024/01/01 12:34:54;;;;;;;4.28;1.17;;;;;;;;;;5045127;28;20463;-88
2024/01/01 12:37:22;;;;;;;6.43;1.33;;;;;;;;;;5044989;28;20123;-87
2024/01/01 12:39:52;;;;;;;5.55;1.35;;;;;;;;;;5062427;28;20053;-92
2024/01/01 12:42:19;;;;;;;2.33;0.70;;;;;;;;;;5044665;28;20045;-88
2024/01/01 12:44:46;;;;;;;5.90;1.35;;;;;;;;;;5057555;28;20069;-87
2024/01/01 12:47:15;;;;;;;4.13;0.93;;;;;;;;;;5057874;28;20114;-88
2024/01/01 12:49:42;;;;;;;4.05;1.23;;;;;;;;;;5061143;28;20075;-88
2024/01/01 12:52:09;;;;;;;6.07;1.00;;;;;;;;;;5044744;28;20068;-88
2024/01/01 12:54:36;;;;;;;2.10;0.70;;;;;;;;;;5042173;28;20049;-89
2024/01/01 12:57:04;;;;;;;3.25;0.95;;;;;;;;;;5057264;28;20053;-88
2024/01/01 12:59:32;;;;;;;5.53;0.90;;;;;;;;;;5041854;28;20059;-87
2024/01/01 13:02:00;;;;;;;5.93;1.13;;;;;;;;;;5065811;28;20053;-88
2024/01/01 13:04:28;;;;;;;4.28;0.90;;;;;;;;;;5053205;28;20056;-88
2024/01/01 13:06:55;;;;;;;4.68;0.90;;;;;;;;;;5054263;28;20094;-88
2024/01/01 13:09:22;;;;;;;3.63;0.93;;;;;;;;;;5027724;28;20479;-89
2024/01/01 13:11:53;;;;;;;2.67;1.45;;;;;;;;;;5056919;28;20580;-88
2024/01/01 13:14:21;;;;;;;5.70;1.20;;;;;;;;;;5057528;28;20041;-88
2024/01/01 13:16:49;;;;;;;3.05;0.77;;;;;;;;;;5044190;28;20053;-87
2024/01/01 13:19:16;;;;;;;6.30;1.17;;;;;;;;;;5043860;28;20088;-87
2024/01/01 13:21:44;;;;;;;2.00;0.90;;;;;;;;;;5033584;28;20136;-87
2024/01/01 13:24:11;;;;;;;3.05;0.90;;;;;;;;;;5040472;28;20077;-88
2024/01/01 13:26:38;;;;;;;4.70;0.80;;;;;;;;;;5059679;28;20111;-88
2024/01/01 13:29:05;;;;;;;3.60;1.00;;;;;;;;;;5044165;28;20563;-88
2024/01/01 13:31:33;;;;;;;4.00;1.08;;;;;;;;;;5042098;28;20091;-88
2024/01/01 13:34:00;;;;;;;1.98;0.90;;;;;;;;;;5056819;28;20049;-87
2024/01/01 13:36:28;;;;;;;6.55;0.85;;;;;;;;;;5056070;28;20104;-89
2024/01/01 13:38:55;;;;;;;4.10;0.93;;;;;;;;;;5030452;28;20072;-88
2024/01/01 13:41:22;;;;;;;4.50;1.10;;;;;;;;;;5027386;28;20080;-89
2024/01/01 13:43:49;;;;;;;4.95;0.88;;;;;;;;;;5043571;28;20056;-89
2024/01/01 13:46:17;;;;;;;3.63;1.00;;;;;;;;;;5044006;28;20052;-88
2024/01/01 13:48:44;;;;;;;4.32;0.95;;;;;;;;;;5035797;28;20045;-87
2024/01/01 13:51:16;;;;;;;3.42;1.20;;;;;;;;;;5043607;28;20048;-88
2024/01/01 13:53:44;;;;;;;5.85;1.20;;;;;;;;;;5040452;28;20049;-88
2024/01/01 13:56:18;;;;;;;3.63;1.00;;;;;;;;;;5057553;28;20050;-88
2024/01/01 13:58:46;;;;;;;3.00;0.70;;;;;;;;;;5048510;28;20065;-89
2024/01/01 14:01:14;;;;;;;3.58;0.80;;;;;;;;;;5057653;28;20056;-88
2024/01/01 14:03:43;;;;;;;3.03;1.13;;;;;;;;;;5059347;28;20049;-88
2024/01/01 14:06:11;;;;;;;4.60;1.20;;;;;;;;;;5043334;28;20057;-88
2024/01/01 14:08:39;;;;;;;6.75;0.82;;;;;;;;;;5041287;28;20056;-88
2024/01/01 14:11:06;;;;;;;3.17;0.75;;;;;;;;;;5056656;28;20055;-88
2024/01/01 14:13:33;;;;;;;4.18;1.15;;;;;;;;;;5056475;28;20406;-88
2024/01/01 14:16:01;;;;;;;4.93;0.68;;;;;;;;;;5040881;28;20081;-88
2024/01/01 14:18:28;;;;;;;2.55;0.60;;;;;;;;;;5044546;28;20088;-88
2024/01/01 14:20:56;;;;;;;2.58;0.70;;;;;;;;;;5043609;28;20128;-88
2024/01/01 14:23:23;;;;;;;3.42;1.40;;;;;;;;;;5026414;28;20061;-88
2024/01/01 14:25:50;;;;;;;2.80;0.70;;;;;;;;;;5043845;28;20098;-88
2024/01/01 14:28:18;;;;;;;4.10;1.08;;;;;;;;;;5044775;28;20045;-89
2024/01/01 14:30:51;;;;;;;3.92;1.08;;;;;;;;;;5034424;28;20050;-88
2024/01/01 14:33:19;;;;;;;;;;;;;;;;;;5060431;28;20061;-88
2024/01/01 14:35:47;;;;;;;1.45;0.60;;;;;;;;;;5047214;28;20027;-88
2024/01/01 14:38:14;;;;;;;5.45;0.95;;;;;;;;;;5047215;28;20049;-89
2024/01/01 14:40:42;;;;;;;3.35;1.08;;;;;;;;;;5047055;28;20076;-88
2024/01/01 14:43:13;;;;;;;2.20;0.80;;;;;;;;;;5047831;28;20509;-88